Time;durP1;ratioP1;P1;durP2;ratioP2;P2;SDS_P1;SDS_P2;PMS_P1;PMS_P2;Temp;Humidity;BMP_temperature;BMP_pressure;BME280_temperature;BME280_humidity;BME280_pressure;Samples;Min_cycle;Max_cycle;Signal;HPM_P1;HPM_P2
2020/12/21 00:02:17;;;;;;;19.03;6.37;;;;;;;12.94;78.59;101805.88;5030646;28;20576;-60
2020/12/21 00:04:42;;;;;;;13.87;4.87;;;;;;;13.05;77.20;101791.13;5031637;28;20034;-61
2020/12/21 00:07:08;;;;;;;18.57;5.30;;;;;;;12.88;79.18;101798.53;5030941;28;20527;-60
2020/12/21 00:09:33;;;;;;;14.50;4.70;;;;;;;12.87;79.20;101804.94;5031559;28;20433;-61
2020/12/21 00:11:59;;;;;;;18.10;6.70;;;;;;;13.00;76.98;101783.63;5030909;28;20038;-59
2020/12/21 00:14:24;;;;;;;29.20;7.53;;;;;;;13.00;77.81;101804.25;5031616;28;20034;-61
2020/12/21 00:16:51;;;;;;;30.63;9.30;;;;;;;12.90;78.46;101788.44;5031671;28;20087;-61
2020/12/21 00:19:18;;;;;;;20.73;10.35;;;;;;;13.17;76.88;101802.22;5031553;28;20029;-61
2020/12/21 00:21:45;;;;;;;31.85;12.60;;;;;;;12.75;79.55;101792.00;5031648;28;20361;-61
2020/12/21 00:24:11;;;;;;;34.40;10.95;;;;;;;13.11;77.09;101802.94;5030816;28;20033;-61
2020/12/21 00:26:44;;;;;;;24.13;8.37;;;;;;;13.01;78.46;101796.03;5031385;28;20037;-61
2020/12/21 00:29:14;;;;;;;18.00;5.97;;;;;;;12.73;80.71;101783.31;5014321;28;20161;-60
2020/12/21 00:31:40;;;;;;;;;;;;;;;13.15;78.21;101793.50;5032169;28;20061;-60
2020/12/21 00:34:06;;;;;;;25.73;5.77;;;;;;;12.77;79.39;101797.16;5031049;28;19959;-60
2020/12/21 00:36:35;;;;;;;37.72;11.57;;;;;;;12.61;81.04;101795.50;5031797;28;20041;-59
2020/12/21 00:39:02;;;;;;;32.42;11.23;;;;;;;12.59;80.73;101797.56;5029624;28;20064;-60
2020/12/21 00:41:28;;;;;;;31.35;11.65;;;;;;;12.67;80.39;101794.75;5031107;28;20046;-60
2020/12/21 00:43:55;;;;;;;30.08;12.38;;;;;;;12.59;80.66;101792.19;5029629;28;20099;-58
2020/12/21 00:46:27;;;;;;;24.93;9.13;;;;;;;13.23;75.54;101790.72;5030164;28;20041;-60
2020/12/21 00:48:55;;;;;;;15.70;6.65;;;;;;;12.76;79.58;101796.34;5031314;28;20376;-58
2020/12/21 00:51:21;;;;;;;22.52;6.93;;;;;;;13.35;75.42;101772.22;5031383;28;20069;-60
2020/12/21 00:53:47;;;;;;;16.40;5.88;;;;;;;13.41;73.54;101789.44;5031113;28;20046;-60
2020/12/21 00:56:13;;;;;;;20.75;5.90;;;;;;;13.24;75.44;101789.69;5030382;28;20467;-60
2020/12/21 00:58:42;;;;;;;22.98;6.88;;;;;;;12.86;76.40;101787.16;5031233;28;20065;-60
2020/12/21 01:01:29;;;;;;;24.45;6.50;;;;;;;13.27;73.43;101789.28;5030569;28;20033;-59
2020/12/21 01:04:01;;;;;;;18.05;5.97;;;;;;;13.13;73.97;101792.84;5031299;28;20042;-60
2020/12/21 01:06:27;;;;;;;25.50;6.35;;;;;;;13.10;73.14;101793.22;5031230;28;20041;-60
2020/12/21 01:08:52;;;;;;;21.60;7.13;;;;;;;12.74;76.37;101794.84;5031221;28;20033;-60
2020/12/21 01:11:18;;;;;;;16.13;5.93;;;;;;;12.90;75.41;101794.66;5030575;28;20037;-60
2020/12/21 01:13:46;;;;;;;23.93;7.57;;;;;;;12.49;79.98;101795.13;5030880;28;20029;-60
2020/12/21 01:16:11;;;;;;;21.77;6.53;;;;;;;12.47;79.25;101775.72;5030784;28;20041;-61
2020/12/21 01:18:37;;;;;;;25.37;6.33;;;;;;;12.82;76.43;101780.50;5029969;28;20151;-60
2020/12/21 01:21:03;;;;;;;16.75;5.13;;;;;;;12.67;78.74;101788.56;5028397;28;20089;-60
2020/12/21 01:23:29;;;;;;;21.30;6.35;;;;;;;12.40;80.77;101782.84;5031142;28;20025;-62
2020/12/21 01:25:55;;;;;;;17.13;6.68;;;;;;;12.48;79.46;101788.13;5031084;28;20033;-62
2020/12/21 01:28:20;;;;;;;22.00;5.95;;;;;;;12.26;82.58;101777.28;5030320;28;20034;-60
2020/12/21 01:30:46;;;;;;;20.60;6.23;;;;;;;12.40;81.27;101793.56;5031678;28;20120;-60
2020/12/21 01:33:12;;;;;;;15.30;5.63;;;;;;;12.45;80.10;101775.06;5030478;28;20487;-60
2020/12/21 01:35:38;;;;;;;22.23;6.47;;;;;;;12.38;81.30;101791.06;5031092;28;20037;-61
2020/12/21 01:38:04;;;;;;;28.83;8.18;;;;;;;12.26;81.80;101792.56;5011756;28;20116;-60
2020/12/21 01:40:30;;;;;;;18.45;6.35;;;;;;;12.39;80.32;101775.81;5011230;28;20411;-60
2020/12/21 01:42:55;;;;;;;22.40;7.20;;;;;;;12.64;78.25;101789.78;5011276;28;20034;-60
2020/12/21 01:45:21;;;;;;;26.73;6.87;;;;;;;12.57;79.21;101783.50;5009171;28;20034;-60
2020/12/21 01:47:47;;;;;;;18.77;6.07;;;;;;;12.69;77.22;101795.44;5014802;28;20094;-60
2020/12/21 01:50:12;;;;;;;19.02;6.53;;;;;;;12.36;79.22;101777.00;5014133;28;20439;-60
2020/12/21 01:52:38;;;;;;;21.45;5.95;;;;;;;12.36;80.21;101803.00;5014698;28;20116;-60
2020/12/21 01:55:04;;;;;;;28.02;6.80;;;;;;;12.44;78.53;101790.31;5014372;28;20093;-60
2020/12/21 01:57:29;;;;;;;21.60;6.20;;;;;;;12.58;77.25;101785.16;5014391;28;20038;-60
2020/12/21 01:59:55;;;;;;;22.87;6.73;;;;;;;12.67;76.85;101793.94;5014362;28;20038;-60
2020/12/21 02:02:21;;;;;;;30.17;8.20;;;;;;;12.33;78.36;101785.44;5013664;28;20042;-60
2020/12/21 02:04:47;;;;;;;27.73;7.03;;;;;;;12.16;80.27;101799.00;5014592;28;20070;-60
2020/12/21 02:07:14;;;;;;;19.10;5.73;;;;;;;12.28;79.69;101785.16;5031673;28;20064;-60
2020/12/21 02:09:40;;;;;;;21.60;6.25;;;;;;;12.16;80.94;101796.31;5033884;28;20033;-59
2020/12/21 02:12:05;;;;;;;24.50;5.93;;;;;;;12.14;79.19;101781.44;5033557;28;20048;-61
2020/12/21 02:14:31;;;;;;;19.47;6.33;;;;;;;12.12;79.59;101803.06;5034216;28;20045;-61
2020/12/21 02:16:56;;;;;;;23.47;6.10;;;;;;;12.30;78.51;101791.16;5030772;28;20281;-61
2020/12/21 02:19:22;;;;;;;26.47;6.70;;;;;;;12.01;81.67;101792.78;5029035;28;20050;-60
2020/12/21 02:21:48;;;;;;;16.33;5.20;;;;;;;12.10;80.53;101791.69;5024536;28;20045;-60
2020/12/21 02:24:13;;;;;;;20.48;7.20;;;;;;;12.05;80.70;101772.63;5013525;28;20030;-60
2020/12/21 02:26:39;;;;;;;19.48;6.65;;;;;;;11.95;81.51;101780.06;5021753;28;20040;-60
2020/12/21 02:29:06;;;;;;;16.83;5.75;;;;;;;11.88;81.87;101783.47;5031776;28;20041;-60
2020/12/21 02:31:31;;;;;;;24.55;7.13;;;;;;;11.96;81.58;101782.56;5032336;28;20405;-60
2020/12/21 02:33:57;;;;;;;19.20;5.78;;;;;;;12.10;80.89;101791.69;5019553;28;20038;-61
2020/12/21 02:36:22;;;;;;;13.23;5.83;;;;;;;11.89;83.11;101787.81;5013015;28;20037;-59
2020/12/21 02:38:48;;;;;;;16.77;6.47;;;;;;;12.07;81.06;101784.00;5013933;28;20080;-61
2020/12/21 02:41:18;;;;;;;17.90;5.87;;;;;;;12.08;80.62;101784.81;5017060;28;20022;-59
2020/12/21 02:43:43;;;;;;;16.20;5.22;;;;;;;11.98;81.63;101788.59;5032151;28;20112;-60
2020/12/21 02:46:14;;;;;;;25.75;5.82;;;;;;;12.03;81.40;101780.03;5032679;28;20120;-60
2020/12/21 02:48:40;;;;;;;14.45;6.18;;;;;;;11.91;82.00;101788.47;5033185;28;20060;-62
2020/12/21 02:51:06;;;;;;;17.83;6.88;;;;;;;12.29;78.70;101776.09;5032574;28;20469;-59
2020/12/21 02:53:31;;;;;;;16.37;5.73;;;;;;;11.92;81.01;101765.19;5033203;28;20528;-62
2020/12/21 02:55:57;;;;;;;20.20;5.73;;;;;;;12.42;77.86;101764.72;5034249;28;20037;-61
2020/12/21 02:58:22;;;;;;;20.30;6.07;;;;;;;11.90;81.76;101772.59;5031749;28;20421;-61
2020/12/21 03:00:48;;;;;;;14.90;6.40;;;;;;;11.96;82.96;101776.38;5033187;28;20030;-60
2020/12/21 03:03:13;;;;;;;21.50;5.37;;;;;;;11.86;84.41;101774.78;5032536;28;20329;-61
2020/12/21 03:05:40;;;;;;;21.33;7.05;;;;;;;11.76;84.38;101758.09;5032503;28;20029;-60
2020/12/21 03:08:07;;;;;;;20.95;5.82;;;;;;;11.90;83.87;101754.63;5023198;28;20041;-60
2020/12/21 03:10:33;;;;;;;20.65;5.15;;;;;;;11.90;84.23;101768.03;5013525;28;20026;-60
2020/12/21 03:12:59;;;;;;;;;;;;;;;12.27;80.88;101764.72;5013716;28;20083;-61
2020/12/21 03:15:24;;;;;;;16.60;5.40;;;;;;;12.27;80.75;101765.53;5012711;28;19909;-60
2020/12/21 03:17:50;;;;;;;20.33;5.97;;;;;;;12.31;79.43;101766.00;5012966;28;20116;-60
2020/12/21 03:20:16;;;;;;;18.83;6.07;;;;;;;12.11;82.51;101758.50;5012658;28;20044;-60
2020/12/21 03:22:41;;;;;;;18.13;4.85;;;;;;;11.96;84.08;101762.97;5013142;28;20371;-60
2020/12/21 03:25:07;;;;;;;16.47;5.03;;;;;;;12.13;82.73;101772.53;5011832;28;20108;-60
2020/12/21 03:27:32;;;;;;;35.33;5.83;;;;;;;12.03;83.54;101772.00;5012419;28;20035;-60
2020/12/21 03:29:58;;;;;;;18.73;5.77;;;;;;;12.08;82.84;101764.22;5012704;28;20075;-60
2020/12/21 03:32:24;;;;;;;17.43;5.57;;;;;;;11.82;84.82;101769.94;5027204;28;20169;-59
2020/12/21 03:34:52;;;;;;;16.05;5.10;;;;;;;11.73;84.89;101771.88;5012438;28;20041;-61
2020/12/21 03:37:18;;;;;;;19.55;7.68;;;;;;;11.73;85.89;101763.81;5012155;28;20128;-61
2020/12/21 03:39:43;;;;;;;14.88;5.18;;;;;;;11.59;86.91;101766.28;5012800;28;20037;-60
2020/12/21 03:42:09;;;;;;;18.53;5.00;;;;;;;11.52;88.06;101775.22;5012673;28;20030;-61
2020/12/21 03:44:34;;;;;;;14.65;4.88;;;;;;;11.35;88.86;101771.84;5030531;28;20473;-61
2020/12/21 03:47:00;;;;;;;17.73;5.23;;;;;;;11.50;88.61;101767.34;5033119;28;20025;-61
2020/12/21 03:49:25;;;;;;;16.70;7.33;;;;;;;11.79;85.47;101764.97;5032376;28;20044;-65
2020/12/21 03:51:51;;;;;;;17.97;5.40;;;;;;;11.73;84.80;101756.63;5031236;28;20041;-60
2020/12/21 03:54:16;;;;;;;17.93;6.10;;;;;;;11.95;83.70;101763.97;5031360;28;20038;-60
2020/12/21 03:56:45;;;;;;;35.93;6.80;;;;;;;11.59;87.19;101771.66;5032242;28;20044;-60
2020/12/21 03:59:11;;;;;;;17.27;6.43;;;;;;;11.68;85.24;101756.34;5032242;28;20473;-60
2020/12/21 04:01:37;;;;;;;15.85;5.78;;;;;;;11.45;86.91;101756.34;5032100;28;20044;-60
2020/12/21 04:04:04;;;;;;;17.55;5.30;;;;;;;11.55;87.50;101756.94;5031913;28;20036;-61
2020/12/21 04:06:30;;;;;;;29.42;6.07;;;;;;;11.66;85.58;101746.81;5030097;28;20347;-60
2020/12/21 04:08:55;;;;;;;17.23;6.20;;;;;;;11.71;86.52;101753.31;5031516;28;20031;-61
2020/12/21 04:11:21;;;;;;;23.20;5.80;;;;;;;11.37;88.38;101741.16;5031077;28;20037;-61
2020/12/21 04:13:46;;;;;;;29.13;5.03;;;;;;;11.55;87.71;101740.88;5031749;28;20746;-60
2020/12/21 04:16:12;;;;;;;19.23;4.77;;;;;;;11.50;87.93;101740.56;5030658;28;20366;-60
2020/12/21 04:18:37;;;;;;;18.47;4.70;;;;;;;11.62;87.30;101736.47;5030089;28;20033;-61
2020/12/21 04:21:03;;;;;;;19.57;5.30;;;;;;;11.32;89.48;101739.03;5030430;28;20516;-61
2020/12/21 04:23:28;;;;;;;23.07;4.90;;;;;;;11.38;89.21;101732.13;5031262;28;20048;-62
2020/12/21 04:25:53;;;;;;;17.53;4.60;;;;;;;11.44;88.11;101733.25;5031646;28;20461;-60
2020/12/21 04:28:19;;;;;;;15.93;4.90;;;;;;;11.86;84.38;101734.56;5031223;28;20342;-60
2020/12/21 04:30:45;;;;;;;22.17;5.60;;;;;;;11.57;85.48;101730.81;5031691;28;20042;-60
2020/12/21 04:33:10;;;;;;;28.17;6.30;;;;;;;11.45;86.14;101732.25;5030413;28;20115;-60
2020/12/21 04:35:36;;;;;;;21.83;5.50;;;;;;;11.49;86.31;101728.19;5029856;28;20048;-61
2020/12/21 04:38:01;;;;;;;23.60;6.90;;;;;;;11.73;83.86;101724.47;5031655;28;20128;-60
2020/12/21 04:40:27;;;;;;;24.90;5.60;;;;;;;11.81;82.97;101728.09;5029863;28;20473;-60
2020/12/21 04:42:55;;;;;;;25.23;7.87;;;;;;;11.62;84.03;101717.72;5031421;28;20033;-61
2020/12/21 04:45:21;;;;;;;22.52;5.90;;;;;;;11.29;86.58;101720.63;5030629;28;20033;-59
2020/12/21 04:47:47;;;;;;;22.40;5.55;;;;;;;11.44;86.06;101718.03;5031569;28;20410;-59
2020/12/21 04:50:18;;;;;;;30.95;6.63;;;;;;;11.73;83.05;101708.41;5031427;28;20036;-60
2020/12/21 04:52:51;;;;;;;17.00;6.97;;;;;;;11.56;83.35;101709.56;5031506;28;20045;-60
2020/12/21 04:55:21;;;;;;;15.30;6.22;;;;;;;11.60;84.11;101700.13;5030899;28;20055;-59
2020/12/21 04:58:01;;;;;;;21.33;5.82;;;;;;;11.94;82.31;101716.75;5031370;28;20462;-60
2020/12/21 05:00:28;;;;;;;19.77;6.20;;;;;;;11.62;83.87;101700.78;5030530;28;20038;-61
2020/12/21 05:02:54;;;;;;;18.77;6.00;;;;;;;11.55;84.81;101714.09;5031090;28;20029;-60
2020/12/21 05:05:30;;;;;;;;;;;;;;;11.67;84.67;101713.66;5031280;28;20048;-60
2020/12/21 05:07:56;;;;;;;14.82;5.80;;;;;;;11.58;84.47;101694.97;5031234;28;19912;-61
2020/12/21 05:10:22;;;;;;;15.32;5.63;;;;;;;11.98;82.42;101689.41;5029496;28;20364;-59
2020/12/21 05:12:59;;;;;;;26.77;7.27;;;;;;;11.94;82.76;101708.69;5031295;28;20116;-61
2020/12/21 05:15:24;;;;;;;23.02;7.95;;;;;;;11.70;84.15;101697.19;5030547;28;20033;-61
2020/12/21 05:17:49;;;;;;;16.87;6.50;;;;;;;11.90;83.32;101706.38;5030907;28;20040;-60
2020/12/21 05:20:15;;;;;;;27.43;7.70;;;;;;;11.83;83.64;101694.75;5031193;28;20036;-60
2020/12/21 05:22:40;;;;;;;24.27;5.50;;;;;;;11.49;86.10;101693.38;5033035;28;20033;-60
2020/12/21 05:25:09;;;;;;;19.40;6.20;;;;;;;11.68;85.81;101693.88;5034750;28;20119;-60
2020/12/21 05:27:35;;;;;;;21.13;6.55;;;;;;;12.03;82.74;101687.00;5033870;28;20041;-60
2020/12/21 05:30:02;;;;;;;17.50;5.78;;;;;;;11.95;81.98;101686.25;5034692;28;20615;-60
2020/12/21 05:32:28;;;;;;;14.43;5.20;;;;;;;11.74;83.75;101679.75;5034272;28;20356;-60
2020/12/21 05:35:07;;;;;;;18.37;5.43;;;;;;;12.07;82.21;101681.28;5017100;28;20120;-60
2020/12/21 05:37:34;;;;;;;18.25;5.68;;;;;;;11.71;84.84;101669.38;5035406;28;20057;-61
2020/12/21 05:40:00;;;;;;;;;;;;;;;11.56;86.67;101670.22;5035131;28;20025;-61
2020/12/21 05:42:26;;;;;;;15.10;5.17;;;;;;;11.62;86.28;101664.13;5034079;28;19913;-60
2020/12/21 05:44:56;;;;;;;18.77;5.93;;;;;;;11.74;85.35;101663.66;5034590;28;20116;-60
2020/12/21 05:47:23;;;;;;;22.02;5.57;;;;;;;11.68;85.68;101670.59;5032701;28;20113;-59
2020/12/21 05:50:13;;;;;;;15.30;5.10;;;;;;;11.80;85.13;101670.16;5033383;28;20450;-61
2020/12/21 05:52:38;;;;;;;25.63;5.00;;;;;;;11.99;83.30;101671.44;5032189;28;20045;-60
2020/12/21 05:55:11;;;;;;;22.33;5.07;;;;;;;11.97;83.16;101674.31;5032917;28;20091;-60
2020/12/21 05:57:39;;;;;;;15.57;4.72;;;;;;;11.59;84.73;101669.00;5033841;28;20025;-60
2020/12/21 06:00:07;;;;;;;17.13;5.10;;;;;;;11.47;87.29;101682.00;5034374;28;20117;-59
2020/12/21 06:02:33;;;;;;;10.57;4.30;;;;;;;11.43;87.01;101661.94;5033627;28;20040;-60
2020/12/21 06:05:10;;;;;;;23.90;6.20;;;;;;;11.72;85.20;101687.13;5032585;28;20030;-60
2020/12/21 06:07:37;;;;;;;16.23;4.77;;;;;;;11.82;83.72;101673.47;5033324;28;20080;-60
2020/12/21 06:10:07;;;;;;;16.70;4.03;;;;;;;11.58;85.50;101665.50;5034033;28;20357;-61
2020/12/21 06:12:53;;;;;;;14.40;4.00;;;;;;;12.03;81.79;101673.59;5033445;28;20037;-60
2020/12/21 06:15:23;;;;;;;16.02;4.38;;;;;;;11.84;83.35;101650.84;5033403;28;20057;-60
2020/12/21 06:17:48;;;;;;;20.67;3.67;;;;;;;12.00;82.61;101663.22;5034212;28;20051;-60
2020/12/21 06:20:14;;;;;;;14.60;4.97;;;;;;;12.54;78.90;101669.31;5032673;28;20033;-60
2020/12/21 06:22:39;;;;;;;19.50;3.77;;;;;;;12.12;80.96;101674.34;5033227;28;20480;-61
2020/12/21 06:25:06;;;;;;;20.27;5.00;;;;;;;11.67;85.44;101660.06;5033556;28;20041;-60
2020/12/21 06:27:41;;;;;;;21.65;6.75;;;;;;;12.17;81.72;101666.59;5032975;28;20040;-60
2020/12/21 06:30:08;;;;;;;11.18;3.38;;;;;;;12.25;80.70;101671.03;5033520;28;20041;-60
2020/12/21 06:32:35;;;;;;;18.83;5.10;;;;;;;12.21;80.97;101656.31;5031188;28;20037;-60
2020/12/21 06:35:02;;;;;;;10.43;4.03;;;;;;;12.33;79.55;101654.00;5032282;28;20028;-60
2020/12/21 06:37:28;;;;;;;17.08;5.05;;;;;;;12.25;80.76;101651.44;5033148;28;20053;-60
2020/12/21 06:40:04;;;;;;;16.03;4.83;;;;;;;12.30;80.71;101663.25;5033504;28;20106;-60
2020/12/21 06:42:30;;;;;;;17.50;4.10;;;;;;;12.19;80.63;101656.50;5033046;28;20037;-61
2020/12/21 06:44:57;;;;;;;15.80;4.28;;;;;;;11.93;82.30;101656.94;5033341;28;20131;-60
2020/12/21 06:47:26;;;;;;;;;;;;;;;12.08;82.87;101670.38;5033662;28;20052;-60
2020/12/21 06:49:53;;;;;;;24.08;4.60;;;;;;;12.00;83.07;101667.78;5033516;28;19913;-61
2020/12/21 06:52:20;;;;;;;16.90;4.95;;;;;;;11.75;84.73;101649.25;5031616;28;20073;-61
2020/12/21 06:54:45;;;;;;;;;;;;;;;12.02;84.57;101663.09;5033192;28;20069;-60
2020/12/21 06:57:12;;;;;;;10.13;3.53;;;;;;;12.00;85.17;101665.09;5031589;28;19947;-60
2020/12/21 06:59:38;;;;;;;14.27;3.53;;;;;;;12.02;83.99;101663.91;5032878;28;20373;-61
2020/12/21 07:02:04;;;;;;;13.15;5.07;;;;;;;12.37;81.48;101659.84;5028358;28;20030;-59
2020/12/21 07:04:32;;;;;;;13.60;3.92;;;;;;;12.26;82.38;101667.31;5021901;28;20052;-61
2020/12/21 07:07:01;;;;;;;17.30;4.60;;;;;;;11.84;86.19;101663.41;5023648;28;20124;-59
2020/12/21 07:09:35;;;;;;;13.40;4.47;;;;;;;11.87;86.86;101661.19;5021948;28;20030;-59
2020/12/21 07:12:06;;;;;;;19.10;4.85;;;;;;;12.38;83.11;101665.00;5019848;28;20037;-60
2020/12/21 07:14:35;;;;;;;22.52;4.30;;;;;;;12.14;84.41;101656.22;5021278;28;20466;-61
2020/12/21 07:17:05;;;;;;;16.25;5.15;;;;;;;12.15;84.45;101652.53;5023405;28;20084;-60
2020/12/21 07:19:32;;;;;;;34.80;4.45;;;;;;;12.20;83.90;101646.63;5020587;28;20037;-60
2020/12/21 07:21:58;;;;;;;20.38;5.68;;;;;;;12.15;84.27;101649.84;5022984;28;20026;-59
2020/12/21 07:24:23;;;;;;;14.13;4.35;;;;;;;12.09;84.55;101653.28;5022387;28;20529;-60
2020/12/21 07:26:52;;;;;;;17.13;4.20;;;;;;;12.57;80.99;101643.97;5035769;28;20344;-58
2020/12/21 07:29:19;;;;;;;14.85;4.40;;;;;;;12.18;83.94;101646.78;5020950;28;20094;-61
2020/12/21 07:31:44;;;;;;;13.02;4.13;;;;;;;11.95;86.34;101640.66;5032923;28;20038;-60
2020/12/21 07:34:10;;;;;;;14.60;4.63;;;;;;;12.08;86.08;101640.03;5012646;28;20370;-60
2020/12/21 07:36:37;;;;;;;6.70;3.53;;;;;;;12.08;86.08;101624.81;5011731;28;20125;-61
2020/12/21 07:39:10;;;;;;;13.20;4.45;;;;;;;12.08;85.92;101626.63;5011284;28;20053;-61
2020/12/21 07:41:38;;;;;;;17.27;4.40;;;;;;;12.31;84.50;101615.81;5011516;28;20030;-61
2020/12/21 07:44:03;;;;;;;14.65;5.22;;;;;;;12.15;85.78;101632.94;5010314;28;20121;-60
2020/12/21 07:46:37;;;;;;;11.37;3.57;;;;;;;12.13;85.35;101622.38;5012184;28;20108;-61
2020/12/21 07:49:03;;;;;;;21.65;4.35;;;;;;;12.47;84.31;101626.31;5012411;28;20042;-60
2020/12/21 07:51:30;;;;;;;13.65;4.53;;;;;;;12.01;86.81;101623.91;5014666;28;20034;-60
2020/12/21 07:54:00;;;;;;;18.75;4.63;;;;;;;11.75;90.12;101617.09;5026370;28;20100;-60
2020/12/21 07:56:25;;;;;;;13.77;3.85;;;;;;;12.05;87.86;101607.22;5011987;28;20062;-61
2020/12/21 07:58:51;;;;;;;9.93;4.33;;;;;;;12.13;87.15;101621.56;5011259;28;20117;-61
2020/12/21 08:01:21;;;;;;;15.83;4.20;;;;;;;12.47;84.16;101618.28;5011722;28;20080;-60
2020/12/21 08:03:50;;;;;;;14.88;4.53;;;;;;;12.36;84.91;101607.22;5011320;28;20033;-60
2020/12/21 08:06:18;;;;;;;16.30;4.43;;;;;;;12.09;87.48;101609.53;5023264;28;20068;-61
2020/12/21 08:08:44;;;;;;;21.73;5.20;;;;;;;12.26;87.11;101621.72;5011526;28;20037;-60
2020/12/21 08:11:14;;;;;;;15.00;5.07;;;;;;;12.12;86.91;101604.66;5011788;28;20033;-61
2020/12/21 08:13:45;;;;;;;12.15;5.05;;;;;;;12.60;83.68;101606.88;5008017;28;20026;-61
2020/12/21 08:16:10;;;;;;;15.77;5.15;;;;;;;12.29;86.92;101609.81;5009313;28;20034;-60
2020/12/21 08:18:36;;;;;;;13.20;4.67;;;;;;;12.58;85.15;101613.44;5015569;28;20052;-59
2020/12/21 08:21:03;;;;;;;13.43;5.15;;;;;;;12.39;86.53;101614.88;5028582;28;20037;-60
2020/12/21 08:23:30;;;;;;;17.90;4.10;;;;;;;12.42;86.81;101618.00;5030587;28;20041;-60
2020/12/21 08:25:56;;;;;;;10.30;4.55;;;;;;;12.44;85.91;101599.84;5030017;28;20034;-60
2020/12/21 08:28:52;;;;;;;14.18;4.97;;;;;;;12.57;86.36;101612.59;5030758;28;20053;-60
2020/12/21 08:31:22;;;;;;;12.85;5.03;;;;;;;12.63;85.54;101605.63;5016737;28;20046;-59
2020/12/21 08:34:02;;;;;;;15.50;4.43;;;;;;;12.31;87.49;101608.56;5011335;28;20080;-60
2020/12/21 08:36:35;;;;;;;15.50;4.85;;;;;;;12.81;83.39;101577.53;5011458;28;20057;-60
2020/12/21 08:39:16;;;;;;;15.63;4.55;;;;;;;12.84;83.30;101590.56;5029310;28;20088;-60
2020/12/21 08:41:48;;;;;;;13.68;3.55;;;;;;;12.90;83.28;101595.16;5030060;28;20048;-61
2020/12/21 08:44:42;;;;;;;18.25;5.53;;;;;;;12.66;86.08;101591.00;5012423;28;20036;-60
2020/12/21 08:47:08;;;;;;;14.70;5.05;;;;;;;13.01;83.42;101570.47;5005596;28;20042;-61
2020/12/21 08:49:34;;;;;;;12.70;4.40;;;;;;;12.72;85.34;101579.50;5011586;28;20037;-60
2020/12/21 08:52:00;;;;;;;12.40;4.30;;;;;;;12.63;85.90;101578.78;5010569;28;20033;-60
2020/12/21 08:54:26;;;;;;;17.15;5.47;;;;;;;12.65;86.07;101567.88;5018494;28;20036;-61
2020/12/21 08:56:56;;;;;;;12.97;4.23;;;;;;;13.15;83.12;101575.97;5023707;28;20384;-60
2020/12/21 08:59:23;;;;;;;15.52;4.50;;;;;;;12.91;83.46;101556.53;5027445;28;20091;-60
2020/12/21 09:01:48;;;;;;;23.92;5.85;;;;;;;12.81;85.22;101564.94;5026535;28;20112;-61
2020/12/21 09:04:14;;;;;;;14.85;4.65;;;;;;;12.90;84.57;101560.25;5034968;28;20029;-60
2020/12/21 09:06:39;;;;;;;14.00;4.87;;;;;;;12.92;85.40;101566.28;5034622;28;20036;-60
2020/12/21 09:09:06;;;;;;;13.27;5.33;;;;;;;13.09;84.45;101547.19;5034928;28;20036;-60
2020/12/21 09:11:32;;;;;;;15.65;5.65;;;;;;;13.55;81.26;101559.34;5034555;28;20116;-59
2020/12/21 09:13:57;;;;;;;14.63;4.67;;;;;;;13.24;83.68;101565.91;5033612;28;20035;-58
2020/12/21 09:16:25;;;;;;;19.90;5.77;;;;;;;13.03;85.03;101571.13;5034132;28;20103;-60
2020/12/21 09:18:52;;;;;;;14.15;4.95;;;;;;;13.01;86.70;101567.81;5032755;28;20124;-61
2020/12/21 09:21:36;;;;;;;14.40;4.90;;;;;;;13.33;84.72;101552.13;5034418;28;20049;-61
2020/12/21 09:24:01;;;;;;;12.57;4.60;;;;;;;13.33;85.02;101552.13;5033973;28;20037;-61
2020/12/21 09:26:28;;;;;;;25.83;6.07;;;;;;;13.05;86.55;101542.22;5034506;28;20037;-58
2020/12/21 09:28:55;;;;;;;14.10;5.28;;;;;;;13.30;86.07;101549.00;5034993;28;20037;-60
2020/12/21 09:31:22;;;;;;;17.95;4.70;;;;;;;13.12;86.87;101528.84;5053085;28;20028;-61
2020/12/21 09:33:48;;;;;;;14.32;5.63;;;;;;;13.15;87.58;101544.56;5038999;28;20033;-59
2020/12/21 09:36:14;;;;;;;;;;;;;;;14.00;80.38;101548.16;5054172;28;20060;-60
2020/12/21 09:38:40;;;;;;;18.97;4.80;;;;;;;13.57;84.95;101551.91;5052111;28;20007;-59
2020/12/21 09:41:06;;;;;;;16.85;4.85;;;;;;;13.80;82.49;101538.16;5054155;28;20041;-61
2020/12/21 09:43:32;;;;;;;14.63;6.35;;;;;;;13.62;84.96;101550.28;5053948;28;20094;-59
2020/12/21 09:45:58;;;;;;;10.90;4.28;;;;;;;13.72;84.14;101539.16;5052842;28;20461;-60
2020/12/21 09:48:23;;;;;;;19.03;4.87;;;;;;;13.95;83.29;101542.56;5054467;28;20040;-60
2020/12/21 09:50:49;;;;;;;20.77;4.70;;;;;;;13.64;85.15;101541.19;5053941;28;20457;-61
2020/12/21 09:53:15;;;;;;;14.20;4.70;;;;;;;13.65;86.17;101534.78;5054173;28;20033;-60
2020/12/21 09:55:42;;;;;;;13.95;4.18;;;;;;;13.69;86.31;101525.28;5053736;28;20068;-59
2020/12/21 09:58:08;;;;;;;12.82;4.35;;;;;;;13.93;84.89;101539.25;5052051;28;20426;-60
2020/12/21 10:00:33;;;;;;;17.57;6.07;;;;;;;13.77;86.00;101519.75;5029604;28;20055;-60
2020/12/21 10:02:59;;;;;;;11.57;4.43;;;;;;;13.58;88.36;101532.06;5016101;28;20034;-61
2020/12/21 10:05:24;;;;;;;16.33;4.07;;;;;;;13.90;85.71;101506.34;5014139;28;20024;-61
2020/12/21 10:07:50;;;;;;;16.10;5.47;;;;;;;14.00;86.70;101521.28;5012818;28;20352;-61
2020/12/21 10:10:15;;;;;;;13.63;5.03;;;;;;;13.66;89.07;101507.69;5013735;28;20222;-61
2020/12/21 10:12:41;;;;;;;6.23;3.63;;;;;;;13.94;87.26;101493.31;5013979;28;20130;-59
2020/12/21 10:15:06;;;;;;;16.40;4.93;;;;;;;13.98;88.87;101499.13;5013500;28;20041;-60
2020/12/21 10:17:32;;;;;;;12.87;3.97;;;;;;;13.68;90.92;101494.06;5013966;28;20417;-60
2020/12/21 10:19:58;;;;;;;19.52;4.68;;;;;;;13.50;100.00;101476.63;5013098;28;20033;-59
2020/12/21 10:22:23;;;;;;;15.67;5.67;;;;;;;13.46;93.06;101451.19;5013664;28;20030;-60
2020/12/21 10:24:48;;;;;;;15.97;4.57;;;;;;;13.67;92.64;101468.22;5013066;28;20461;-60
2020/12/21 10:27:14;;;;;;;20.90;4.73;;;;;;;13.82;91.95;101485.00;5013331;28;20041;-61
2020/12/21 10:29:39;;;;;;;16.23;4.77;;;;;;;13.57;94.28;101466.72;5013160;28;20156;-61
2020/12/21 10:32:05;;;;;;;25.87;4.97;;;;;;;13.89;93.41;101475.13;5012807;28;20175;-61
2020/12/21 10:34:31;;;;;;;18.60;4.97;;;;;;;13.71;94.36;101450.66;5013930;28;20159;-59
2020/12/21 10:36:56;;;;;;;18.10;4.87;;;;;;;13.76;93.13;101445.50;5012792;28;20037;-60
2020/12/21 10:39:22;;;;;;;20.53;6.77;;;;;;;13.54;95.63;101447.50;5013452;28;20370;-59
2020/12/21 10:41:48;;;;;;;12.37;6.03;;;;;;;13.45;96.76;101458.41;5012410;28;20034;-60
2020/12/21 10:44:14;;;;;;;20.10;6.05;;;;;;;14.33;89.72;101459.47;5024485;28;20453;-61
2020/12/21 10:46:39;;;;;;;18.30;6.30;;;;;;;13.71;92.77;101439.91;5033131;28;20033;-61
2020/12/21 10:49:05;;;;;;;13.77;5.30;;;;;;;13.61;94.51;101433.06;5032752;28;20044;-62
2020/12/21 10:51:32;;;;;;;16.57;5.47;;;;;;;13.66;95.41;101431.63;5033485;28;20032;-61
2020/12/21 10:53:58;;;;;;;17.27;6.05;;;;;;;13.81;93.80;101426.91;5032611;28;20285;-60
2020/12/21 10:56:24;;;;;;;17.90;6.15;;;;;;;13.55;95.69;101420.41;5033423;28;20029;-61
2020/12/21 10:58:50;;;;;;;17.05;5.60;;;;;;;13.74;94.26;101412.63;5032619;28;20552;-61
2020/12/21 11:01:18;;;;;;;13.63;4.93;;;;;;;13.59;97.14;101402.84;5033211;28;20041;-61
2020/12/21 11:03:45;;;;;;;16.63;5.40;;;;;;;13.34;97.36;101397.16;5032564;28;20040;-60
2020/12/21 11:06:11;;;;;;;25.70;5.72;;;;;;;13.72;97.33;101388.63;5033086;28;20088;-61
2020/12/21 11:08:37;;;;;;;15.45;4.88;;;;;;;13.48;97.85;101381.94;5032209;28;20056;-61
2020/12/21 11:11:03;;;;;;;19.02;4.85;;;;;;;13.20;100.00;101356.81;5031967;28;20048;-60
2020/12/21 11:13:29;;;;;;;13.68;4.95;;;;;;;13.68;96.10;101346.25;5031888;28;20033;-60
2020/12/21 11:15:54;;;;;;;20.90;5.17;;;;;;;13.70;96.61;101353.06;5032165;28;20036;-59
2020/12/21 11:18:20;;;;;;;15.27;5.20;;;;;;;13.53;98.52;101343.72;5030435;28;20030;-60
2020/12/21 11:20:45;;;;;;;20.13;5.37;;;;;;;13.33;98.84;101323.78;5032624;28;20163;-60